Astra 1 — T8A2557 — position and weather

sailwx.info

Track history (hours):
 
Tides and Currents Weather Stations Pressure Air Temp Water Temp Dewpoint Dewpoint Depression Visibility Wind Speed Wind Dir Waves Ship Positions

Astra 1

Last reported at 2018-Feb-25 11:27 UTC. Time now 2018-Feb-25 12:11 UTC.
Position N 45°32' E 036°47'.

Length 107 m; draft 2.7 m.

Type: Cargo ship. MMSI: 511421000.

Date/timePositionNaut miles runAvg speedWind from/ knotsBaromVisibWave heightAir tempDewpointWater temp
2018-Feb-25 11:27N 45°32' E 036°47'3 7.1
2018-Feb-25 11:00N 45°29' E 036°44'3 6.9
2018-Feb-25 10:30N 45°26' E 036°41'3 6.8
2018-Feb-25 10:00N 45°23' E 036°41'3 5.7
2018-Feb-25 09:30N 45°21' E 036°39'3 6.0
2018-Feb-25 09:00N 45°19' E 036°35'3 6.6
2018-Feb-25 08:30N 45°18' E 036°30'3 6.1
2018-Feb-25 08:00N 45°16' E 036°28'3 5.8
2018-Feb-25 07:30N 45°13' E 036°30'0 0.1
2018-Feb-25 05:46N 45°13' E 036°30'0 0.0
2018-Feb-25 05:28N 45°13' E 036°30'0 0.0
2018-Feb-25 04:52N 45°13' E 036°30'0 0.0
2018-Feb-25 04:28N 45°13' E 036°30'0 0.0
2018-Feb-25 03:58N 45°13' E 036°30'0 0.0
2018-Feb-25 03:25N 45°13' E 036°30'0 0.8
2018-Feb-25 02:55N 45°12' E 036°30'3 6.7
2018-Feb-25 02:30N 45°10' E 036°29'  
Track history (hours):
 
Tides and Currents Weather Stations Pressure Air Temp Water Temp Dewpoint Dewpoint Depression Visibility Wind Speed Wind Dir Waves Ship Positions

Astra 1

Last reported at 2018-Feb-25 11:27 UTC. Time now 2018-Feb-25 12:11 UTC.
Position N 45°32' E 036°47'.

Length 107 m; draft 2.7 m.

Type: Cargo ship. MMSI: 511421000.

Date/timePositionNaut miles runAvg speedWind from/ knotsBaromVisibWave heightAir tempDewpointWater temp
2018-Feb-25 11:27N 45°32' E 036°47'3 7.1
2018-Feb-25 11:00N 45°29' E 036°44'3 6.9
2018-Feb-25 10:30N 45°26' E 036°41'3 6.8
2018-Feb-25 10:00N 45°23' E 036°41'3 5.7
2018-Feb-25 09:30N 45°21' E 036°39'3 6.0
2018-Feb-25 09:00N 45°19' E 036°35'3 6.6
2018-Feb-25 08:30N 45°18' E 036°30'3 6.1
2018-Feb-25 08:00N 45°16' E 036°28'3 5.8
2018-Feb-25 07:30N 45°13' E 036°30'0 0.1
2018-Feb-25 05:46N 45°13' E 036°30'0 0.0
2018-Feb-25 05:28N 45°13' E 036°30'0 0.0
2018-Feb-25 04:52N 45°13' E 036°30'0 0.0
2018-Feb-25 04:28N 45°13' E 036°30'0 0.0
2018-Feb-25 03:58N 45°13' E 036°30'0 0.0
2018-Feb-25 03:25N 45°13' E 036°30'0 0.8
2018-Feb-25 02:55N 45°12' E 036°30'3 6.7
2018-Feb-25 02:30N 45°10' E 036°29'  

Dump ship's entire track history